Time;durP1;ratioP1;P1;durP2;ratioP2;P2;SDS_P1;SDS_P2;PMS_P1;PMS_P2;Temp;Humidity;BMP_temperature;BMP_pressure;BME280_temperature;BME280_humidity;BME280_pressure;Samples;Min_cycle;Max_cycle;Signal;HPM_P1;HPM_P2
2023/11/26 00:03:51;;;;;;;2.13;0.98;;;19.70;53.40;;;;;;8363109;28;20461;-50
2023/11/26 00:07:52;;;;;;;0.80;0.80;;;19.70;53.30;;;;;;8362050;28;20398;-53
2023/11/26 00:11:52;;;;;;;3.13;0.93;;;19.60;53.30;;;;;;8362902;28;20060;-50
2023/11/26 00:15:53;;;;;;;1.33;0.80;;;19.70;53.30;;;;;;8363082;28;20071;-51
2023/11/26 00:19:54;;;;;;;1.08;0.95;;;19.70;53.40;;;;;;8362729;28;20033;-53
2023/11/26 00:23:55;;;;;;;1.58;0.80;;;19.70;53.40;;;;;;8362448;28;20442;-49
2023/11/26 00:27:55;;;;;;;1.02;0.80;;;19.60;53.40;;;;;;8362568;28;20355;-52
2023/11/26 00:31:57;;;;;;;1.13;0.88;;;19.60;53.40;;;;;;8362196;28;20068;-51
2023/11/26 00:35:57;;;;;;;1.52;0.90;;;19.60;53.40;;;;;;8362229;28;20029;-54
2023/11/26 00:39:58;;;;;;;0.82;0.80;;;19.60;53.40;;;;;;8362073;28;20043;-53
2023/11/26 00:43:59;;;;;;;0.90;0.73;;;19.60;53.40;;;;;;8360813;28;20395;-52
2023/11/26 00:47:59;;;;;;;0.80;0.80;;;19.60;53.40;;;;;;8361884;28;20037;-53
2023/11/26 00:52:00;;;;;;;1.05;0.90;;;19.60;53.40;;;;;;8361714;28;20037;-54
2023/11/26 00:56:01;;;;;;;1.75;1.08;;;19.60;53.40;;;;;;8361349;28;20037;-52
2023/11/26 01:00:05;;;;;;;1.00;0.90;;;19.60;53.40;;;;;;8361947;28;20021;-53
2023/11/26 01:04:06;;;;;;;0.77;0.77;;;19.60;53.40;;;;;;8361055;28;20576;-54
2023/11/26 01:08:07;;;;;;;0.98;0.98;;;19.60;53.40;;;;;;8361080;28;20091;-54
2023/11/26 01:12:08;;;;;;;1.00;0.88;;;19.60;53.40;;;;;;8360933;28;20037;-54
2023/11/26 01:16:09;;;;;;;1.13;1.02;;;19.60;53.40;;;;;;8360883;28;20029;-53
2023/11/26 01:20:11;;;;;;;1.45;1.10;;;19.60;53.40;;;;;;8360801;28;20096;-52
2023/11/26 01:24:12;;;;;;;1.20;0.90;;;19.60;53.40;;;;;;8360830;28;20083;-49
2023/11/26 01:28:12;;;;;;;1.58;1.23;;;19.60;53.40;;;;;;8360629;28;20085;-50
2023/11/26 01:32:13;;;;;;;0.80;0.80;;;19.60;53.50;;;;;;8360331;28;20059;-49
2023/11/26 01:36:14;;;;;;;1.35;0.80;;;19.60;53.50;;;;;;8360563;28;20052;-49
2023/11/26 01:40:15;;;;;;;0.70;0.70;;;19.60;53.50;;;;;;8360193;28;20433;-49
2023/11/26 01:44:16;;;;;;;1.17;0.90;;;19.60;53.50;;;;;;8360232;28;20111;-48
2023/11/26 01:48:16;;;;;;;;;;;19.60;53.50;;;;;;8360556;28;20033;-49
2023/11/26 01:52:18;;;;;;;1.20;0.77;;;19.60;53.50;;;;;;8359969;28;19971;-50
2023/11/26 01:56:18;;;;;;;;;;;19.60;53.50;;;;;;8360138;28;20025;-48
2023/11/26 02:00:21;;;;;;;0.90;0.70;;;19.50;53.40;;;;;;8359815;28;20440;-48
2023/11/26 02:04:22;;;;;;;1.13;0.88;;;19.60;53.40;;;;;;8359649;28;20130;-48
2023/11/26 02:08:26;;;;;;;1.55;1.45;;;19.60;53.40;;;;;;8359684;28;20460;-48
2023/11/26 02:12:27;;;;;;;3.00;1.00;;;19.60;53.40;;;;;;8359736;28;20406;-48
2023/11/26 02:16:28;;;;;;;1.15;1.00;;;19.60;53.40;;;;;;8359697;28;20398;-48
2023/11/26 02:20:29;;;;;;;1.48;0.80;;;19.60;53.40;;;;;;8359425;28;20061;-49
2023/11/26 02:24:31;;;;;;;0.88;0.63;;;19.60;53.40;;;;;;8359690;28;20044;-48
2023/11/26 02:28:32;;;;;;;0.73;0.73;;;19.60;53.40;;;;;;8359460;28;20033;-50
2023/11/26 02:32:33;;;;;;;1.45;0.88;;;19.60;53.40;;;;;;8359272;28;20059;-52
2023/11/26 02:36:34;;;;;;;1.30;0.80;;;19.60;53.40;;;;;;8359286;28;20108;-53
2023/11/26 02:40:34;;;;;;;1.17;0.93;;;19.50;53.30;;;;;;8359282;28;20036;-53
2023/11/26 02:44:35;;;;;;;1.05;0.95;;;19.50;53.40;;;;;;8359097;28;20055;-53
2023/11/26 02:48:36;;;;;;;1.17;0.80;;;19.50;53.40;;;;;;8359801;28;20038;-53
2023/11/26 02:52:38;;;;;;;0.77;0.77;;;19.50;53.40;;;;;;8358959;28;20040;-53
2023/11/26 02:56:43;;;;;;;1.80;0.90;;;19.50;53.40;;;;;;8358708;28;20040;-52
2023/11/26 03:00:45;;;;;;;1.05;0.75;;;19.50;53.40;;;;;;8359003;28;20052;-53
2023/11/26 03:04:48;;;;;;;1.00;0.98;;;19.50;53.90;;;;;;8358624;28;20533;-50
2023/11/26 03:08:50;;;;;;;1.40;0.85;;;19.50;53.40;;;;;;8365286;28;20033;-52
2023/11/26 03:13:07;;;;;;;0.93;0.70;;;19.50;53.40;;;;;;8365047;28;20067;-54
2023/11/26 03:17:08;;;;;;;0.80;0.80;;;19.50;53.30;;;;;;8364831;28;20036;-53
2023/11/26 03:21:15;;;;;;;1.95;1.00;;;19.50;53.40;;;;;;8364785;28;20067;-54
2023/11/26 03:25:16;;;;;;;0.88;0.88;;;19.50;53.40;;;;;;8364565;28;20040;-53
2023/11/26 03:29:16;;;;;;;0.77;0.70;;;19.50;53.30;;;;;;8365092;28;20072;-53
2023/11/26 03:33:18;;;;;;;1.08;0.98;;;19.50;53.40;;;;;;8364274;28;20539;-53
2023/11/26 03:37:18;;;;;;;1.05;0.88;;;19.50;53.40;;;;;;8364082;28;20108;-53
2023/11/26 03:41:19;;;;;;;0.70;0.70;;;19.50;53.30;;;;;;8364182;28;20040;-49
2023/11/26 03:45:20;;;;;;;0.82;0.73;;;19.50;53.40;;;;;;8364040;28;20078;-51
2023/11/26 03:49:21;;;;;;;1.02;0.93;;;19.50;53.40;;;;;;8363759;28;20036;-50
2023/11/26 03:53:21;;;;;;;1.30;0.93;;;19.50;53.40;;;;;;8363829;28;20111;-49
2023/11/26 03:57:22;;;;;;;0.70;0.70;;;19.50;53.40;;;;;;8363664;28;20029;-49
2023/11/26 04:01:23;;;;;;;0.75;0.75;;;19.50;53.40;;;;;;8363076;28;20052;-50
2023/11/26 04:05:25;;;;;;;0.70;0.70;;;19.50;53.50;;;;;;8363388;28;20037;-50
2023/11/26 04:09:26;;;;;;;1.15;0.90;;;19.50;53.40;;;;;;8363241;28;20033;-49
2023/11/26 04:13:27;;;;;;;0.93;0.82;;;19.50;53.40;;;;;;8363121;28;20029;-50
2023/11/26 04:17:28;;;;;;;1.33;0.70;;;19.50;53.40;;;;;;8362875;28;20021;-49
2023/11/26 04:21:28;;;;;;;0.75;0.75;;;19.50;53.40;;;;;;8362925;28;20056;-49
2023/11/26 04:25:29;;;;;;;0.88;0.80;;;19.50;53.40;;;;;;8362775;28;20037;-49
2023/11/26 04:29:30;;;;;;;0.95;0.60;;;19.50;53.40;;;;;;8362399;28;20033;-49
2023/11/26 04:33:30;;;;;;;1.10;0.80;;;19.50;53.40;;;;;;8362404;28;20033;-49
2023/11/26 04:37:31;;;;;;;1.20;0.80;;;19.50;53.40;;;;;;8362194;28;20044;-49
2023/11/26 04:41:32;;;;;;;0.77;0.65;;;19.50;53.40;;;;;;8362231;28;20031;-49
2023/11/26 04:45:32;;;;;;;1.10;0.70;;;19.50;53.40;;;;;;8361804;28;20037;-49
2023/11/26 04:49:33;;;;;;;0.60;0.60;;;19.50;53.40;;;;;;8361971;28;20021;-50
2023/11/26 04:53:34;;;;;;;1.05;0.60;;;19.50;53.40;;;;;;8361735;28;20033;-52
2023/11/26 04:57:35;;;;;;;0.85;0.75;;;19.50;53.40;;;;;;8361748;28;20033;-53
2023/11/26 05:01:43;;;;;;;2.17;0.60;;;19.40;53.40;;;;;;8361304;28;20178;-51
2023/11/26 05:05:44;;;;;;;1.38;0.73;;;19.50;53.50;;;;;;8361159;28;20036;-53
2023/11/26 05:09:44;;;;;;;0.60;0.60;;;19.40;53.50;;;;;;8361156;28;20114;-53
2023/11/26 05:13:45;;;;;;;0.77;0.70;;;19.40;53.50;;;;;;8361319;28;20120;-53
2023/11/26 05:17:47;;;;;;;0.55;0.55;;;19.40;53.50;;;;;;8360883;28;20036;-52
2023/11/26 05:21:48;;;;;;;1.85;0.98;;;19.40;53.50;;;;;;8360693;28;20079;-53
2023/11/26 05:25:48;;;;;;;0.85;0.75;;;19.40;53.40;;;;;;8360982;28;20032;-53
2023/11/26 05:29:49;;;;;;;0.60;0.60;;;19.40;53.40;;;;;;8359840;28;20044;-53
2023/11/26 05:33:51;;;;;;;0.98;0.88;;;19.50;53.50;;;;;;8360237;28;20398;-52
2023/11/26 05:37:52;;;;;;;0.60;0.60;;;19.50;53.40;;;;;;8360590;28;20033;-52
2023/11/26 05:41:53;;;;;;;0.68;0.60;;;19.50;53.40;;;;;;8360058;28;20037;-53
2023/11/26 05:45:53;;;;;;;1.27;0.80;;;19.50;53.40;;;;;;8360059;28;20037;-53
2023/11/26 05:49:54;;;;;;;0.63;0.63;;;19.50;53.40;;;;;;8360095;28;20525;-52
2023/11/26 05:53:55;;;;;;;0.52;0.50;;;19.50;53.40;;;;;;8359990;28;20116;-51
2023/11/26 05:57:56;;;;;;;0.80;0.80;;;19.50;53.40;;;;;;8359972;28;20486;-53
2023/11/26 06:01:57;;;;;;;0.68;0.63;;;19.50;53.40;;;;;;8359549;28;20086;-51
2023/11/26 06:05:58;;;;;;;0.75;0.75;;;19.50;53.40;;;;;;8359679;28;20482;-52
2023/11/26 06:09:59;;;;;;;0.50;0.50;;;19.40;53.40;;;;;;8360030;28;20083;-52
2023/11/26 06:14:00;;;;;;;0.50;0.50;;;19.50;53.40;;;;;;8359480;28;20045;-51
2023/11/26 06:18:00;;;;;;;0.80;0.70;;;19.40;53.40;;;;;;8359527;28;20033;-50
2023/11/26 06:22:01;;;;;;;0.90;0.90;;;19.50;53.40;;;;;;8359739;28;20458;-52
2023/11/26 06:26:02;;;;;;;1.33;0.88;;;19.50;53.40;;;;;;8359271;28;20475;-52
2023/11/26 06:30:04;;;;;;;0.63;0.63;;;19.60;53.20;;;;;;8359305;28;20564;-52
2023/11/26 06:34:05;;;;;;;1.23;0.82;;;19.60;53.10;;;;;;8359329;28;20041;-52
2023/11/26 06:38:06;;;;;;;0.80;0.80;;;19.70;53.00;;;;;;8359444;28;20032;-51
2023/11/26 06:42:06;;;;;;;1.00;0.88;;;19.70;53.00;;;;;;8365099;28;20032;-51
2023/11/26 06:46:16;;;;;;;0.70;0.70;;;19.70;53.00;;;;;;8365605;28;20064;-50
2023/11/26 06:50:17;;;;;;;0.75;0.68;;;19.70;52.90;;;;;;8366015;28;20036;-51
2023/11/26 06:54:18;;;;;;;0.65;0.63;;;19.70;52.90;;;;;;8365537;28;20124;-51
2023/11/26 06:58:18;;;;;;;1.27;0.70;;;19.70;52.80;;;;;;8365407;28;20025;-50
2023/11/26 07:02:20;;;;;;;0.85;0.77;;;19.70;52.80;;;;;;8365001;28;20124;-51
2023/11/26 07:06:20;;;;;;;1.13;0.80;;;19.80;52.80;;;;;;8365042;28;20024;-52
2023/11/26 07:10:21;;;;;;;0.70;0.70;;;19.70;52.80;;;;;;8365117;28;20036;-51
2023/11/26 07:14:22;;;;;;;0.60;0.52;;;19.70;52.80;;;;;;8364747;28;20037;-50
2023/11/26 07:18:23;;;;;;;0.60;0.60;;;19.80;52.80;;;;;;8364744;28;20548;-50
2023/11/26 07:22:25;;;;;;;0.52;0.50;;;19.70;52.80;;;;;;8364844;28;20032;-49
2023/11/26 07:26:26;;;;;;;0.70;0.70;;;19.80;52.80;;;;;;8364273;28;20028;-50
2023/11/26 07:30:26;;;;;;;0.60;0.60;;;19.80;52.80;;;;;;8364338;28;20052;-48
2023/11/26 07:34:27;;;;;;;0.65;0.60;;;19.80;52.80;;;;;;8364364;28;20036;-49
2023/11/26 07:38:28;;;;;;;0.60;0.60;;;19.80;52.80;;;;;;8364168;28;20033;-48
2023/11/26 07:42:28;;;;;;;0.80;0.80;;;19.80;52.80;;;;;;8363990;28;20100;-51
2023/11/26 07:46:30;;;;;;;0.88;0.88;;;19.80;52.80;;;;;;8363918;28;20037;-49
2023/11/26 07:50:30;;;;;;;;;;;19.80;52.80;;;;;;8363843;28;20037;-49
2023/11/26 07:54:31;;;;;;;0.70;0.70;;;19.80;52.80;;;;;;8363688;28;19959;-49
2023/11/26 07:58:33;;;;;;;0.65;0.65;;;19.80;52.70;;;;;;8363794;28;20029;-49
2023/11/26 08:02:36;;;;;;;0.80;0.65;;;19.80;52.70;;;;;;8362988;28;20131;-50
2023/11/26 08:06:40;;;;;;;0.85;0.60;;;19.80;52.70;;;;;;8363294;28;20037;-50
2023/11/26 08:10:42;;;;;;;0.85;0.60;;;19.80;52.70;;;;;;8362193;28;20531;-50
2023/11/26 08:14:43;;;;;;;0.40;0.40;;;19.80;52.70;;;;;;8363056;28;20548;-49
2023/11/26 08:18:43;;;;;;;0.55;0.47;;;19.80;52.70;;;;;;8363111;28;20502;-50
2023/11/26 08:22:46;;;;;;;0.73;0.70;;;19.80;52.70;;;;;;8363024;28;20041;-52
2023/11/26 08:26:47;;;;;;;0.60;0.50;;;19.80;52.70;;;;;;8362557;28;20033;-51
2023/11/26 08:30:48;;;;;;;0.50;0.50;;;19.80;52.70;;;;;;8361318;28;20128;-49
2023/11/26 08:34:51;;;;;;;1.23;0.70;;;19.70;52.70;;;;;;8362531;28;20033;-51
2023/11/26 08:38:52;;;;;;;0.50;0.50;;;19.80;52.90;;;;;;8362033;28;20029;-49
2023/11/26 08:42:54;;;;;;;;;;;19.80;52.70;;;;;;8363813;28;20073;-51
2023/11/26 08:46:55;;;;;;;;;;;19.80;52.70;;;;;;8362631;28;20428;-49
2023/11/26 08:50:55;;;;;;;0.80;0.67;;;19.70;52.70;;;;;;8361894;28;20279;-49
2023/11/26 08:54:56;;;;;;;0.40;0.40;;;19.80;52.70;;;;;;8361756;28;20041;-50
2023/11/26 08:58:57;;;;;;;0.57;0.50;;;19.80;52.70;;;;;;8361759;28;20032;-48
2023/11/26 09:02:57;;;;;;;0.68;0.68;;;19.80;52.70;;;;;;8360962;28;20076;-51
2023/11/26 09:06:58;;;;;;;0.98;0.70;;;19.80;52.70;;;;;;8361522;28;20398;-50
2023/11/26 09:10:59;;;;;;;0.60;0.60;;;19.80;52.70;;;;;;8361411;28;20032;-51
2023/11/26 09:14:59;;;;;;;0.50;0.50;;;19.80;52.70;;;;;;8360978;28;20498;-52
2023/11/26 09:19:00;;;;;;;1.48;0.68;;;19.80;52.70;;;;;;8361222;28;20033;-50
2023/11/26 09:23:03;;;;;;;0.77;0.55;;;19.80;52.70;;;;;;8360915;28;20114;-51
2023/11/26 09:27:04;;;;;;;0.70;0.60;;;19.80;52.70;;;;;;8360561;28;20044;-48
2023/11/26 09:31:07;;;;;;;0.50;0.50;;;19.80;52.70;;;;;;8359355;28;20039;-50
2023/11/26 09:35:08;;;;;;;0.40;0.40;;;19.80;52.80;;;;;;8360423;28;20390;-54
2023/11/26 09:39:12;;;;;;;1.08;0.50;;;19.80;52.80;;;;;;8360384;28;20052;-52
2023/11/26 09:43:14;;;;;;;0.40;0.40;;;19.80;52.70;;;;;;8360797;28;20486;-53
2023/11/26 09:47:15;;;;;;;1.48;0.50;;;19.80;53.30;;;;;;8360191;28;20100;-53
2023/11/26 09:51:16;;;;;;;;;;;19.80;52.80;;;;;;8360601;28;20044;-51
2023/11/26 09:55:18;;;;;;;0.50;0.50;;;19.80;52.80;;;;;;8360056;28;19909;-54
2023/11/26 09:59:25;;;;;;;0.90;0.60;;;19.80;52.90;;;;;;8358699;28;20040;-50
2023/11/26 10:03:27;;;;;;;0.50;0.50;;;19.80;52.90;;;;;;8359671;28;20529;-53
2023/11/26 10:07:40;;;;;;;0.60;0.60;;;19.80;52.90;;;;;;8359777;28;20106;-53
2023/11/26 10:11:41;;;;;;;1.23;0.60;;;19.80;52.80;;;;;;8359842;28;20029;-53
2023/11/26 10:15:42;;;;;;;0.40;0.30;;;19.80;52.90;;;;;;8359191;28;20044;-52
2023/11/26 10:19:43;;;;;;;;;;;19.80;52.90;;;;;;8360103;28;20037;-53
2023/11/26 10:23:44;;;;;;;0.57;0.57;;;19.80;52.90;;;;;;8359633;28;19909;-53
2023/11/26 10:27:46;;;;;;;0.73;0.70;;;19.80;52.80;;;;;;8359129;28;20048;-53
2023/11/26 10:32:17;;;;;;;0.50;0.50;;;19.80;52.90;;;;;;8359831;28;20451;-52
2023/11/26 10:36:30;;;;;;;0.95;0.70;;;19.80;52.90;;;;;;8359157;28;20079;-53
2023/11/26 10:40:31;;;;;;;0.70;0.65;;;19.80;52.80;;;;;;8359102;28;20390;-53
2023/11/26 10:44:32;;;;;;;0.40;0.40;;;19.80;52.90;;;;;;8359458;28;20052;-52
2023/11/26 10:48:35;;;;;;;0.40;0.40;;;19.80;52.90;;;;;;8357896;28;20043;-51
2023/11/26 10:52:39;;;;;;;0.63;0.60;;;19.80;52.90;;;;;;8358859;28;20557;-50
2023/11/26 10:56:41;;;;;;;0.40;0.40;;;19.80;52.90;;;;;;8359037;28;20029;-52
2023/11/26 11:00:47;;;;;;;0.60;0.60;;;19.80;52.90;;;;;;8359343;28;20036;-52
2023/11/26 11:04:48;;;;;;;0.47;0.47;;;19.80;52.90;;;;;;8358633;28;20060;-50
2023/11/26 11:08:51;;;;;;;0.82;0.50;;;19.80;52.90;;;;;;8359225;28;20083;-49
2023/11/26 11:12:52;;;;;;;0.68;0.60;;;19.80;52.90;;;;;;8358777;28;20032;-50
2023/11/26 11:16:52;;;;;;;0.30;0.30;;;19.80;52.90;;;;;;8358653;28;20024;-51
2023/11/26 11:21:09;;;;;;;0.68;0.45;;;19.80;52.90;;;;;;8358633;28;20390;-51
2023/11/26 11:25:17;;;;;;;0.60;0.60;;;19.80;52.90;;;;;;8358348;28;20036;-51
2023/11/26 11:29:33;;;;;;;0.50;0.50;;;19.80;52.90;;;;;;8363655;28;20032;-52
2023/11/26 11:33:34;;;;;;;0.60;0.60;;;19.70;53.00;;;;;;8364105;28;20029;-49
2023/11/26 11:38:04;;;;;;;0.63;0.60;;;19.70;53.00;;;;;;8364238;28;20490;-49
2023/11/26 11:42:05;;;;;;;0.68;0.50;;;19.70;53.00;;;;;;8364342;28;20025;-51
2023/11/26 11:46:38;;;;;;;0.40;0.40;;;19.70;53.10;;;;;;8363901;28;20112;-52
2023/11/26 11:50:38;;;;;;;1.02;0.50;;;19.70;53.10;;;;;;8363688;28;20083;-49
2023/11/26 11:54:57;;;;;;;0.52;0.50;;;19.70;53.20;;;;;;8363577;28;20067;-51
2023/11/26 11:59:00;;;;;;;0.60;0.47;;;19.70;53.20;;;;;;8363519;28;20028;-52
2023/11/26 12:03:01;;;;;;;0.75;0.70;;;19.70;53.20;;;;;;8363223;28;20522;-52
2023/11/26 12:07:02;;;;;;;0.57;0.52;;;19.70;53.20;;;;;;8363266;28;20390;-51
2023/11/26 12:11:08;;;;;;;0.68;0.50;;;19.70;53.20;;;;;;8363772;28;20072;-50
2023/11/26 12:15:09;;;;;;;0.47;0.47;;;19.70;53.20;;;;;;8362886;28;20037;-51
2023/11/26 12:19:10;;;;;;;0.93;0.60;;;19.70;53.10;;;;;;8361695;28;20063;-52
2023/11/26 12:23:11;;;;;;;1.05;0.60;;;19.80;53.10;;;;;;8362970;28;20048;-52
2023/11/26 12:27:25;;;;;;;0.50;0.50;;;19.70;53.00;;;;;;8363281;28;20056;-52
2023/11/26 12:31:25;;;;;;;1.00;0.60;;;19.80;53.00;;;;;;8362532;28;20478;-50
2023/11/26 12:35:28;;;;;;;0.73;0.57;;;19.80;53.00;;;;;;8362402;28;20413;-49
2023/11/26 12:39:28;;;;;;;0.65;0.60;;;19.70;53.00;;;;;;8362137;28;20076;-51
2023/11/26 12:43:29;;;;;;;1.90;0.75;;;19.80;53.00;;;;;;8362294;28;20029;-52
2023/11/26 12:47:32;;;;;;;0.75;0.70;;;19.70;53.00;;;;;;8361996;28;20033;-52
2023/11/26 12:51:32;;;;;;;0.50;0.50;;;19.70;53.00;;;;;;8361994;28;20576;-51
2023/11/26 12:55:33;;;;;;;0.60;0.60;;;19.80;53.00;;;;;;8361616;28;20421;-50
2023/11/26 12:59:49;;;;;;;0.90;0.50;;;19.80;53.00;;;;;;8360063;28;20112;-51
2023/11/26 13:03:50;;;;;;;0.50;0.50;;;19.80;53.00;;;;;;8361430;28;20517;-51
2023/11/26 13:07:51;;;;;;;1.08;0.60;;;19.70;53.00;;;;;;8361610;28;20441;-53
2023/11/26 13:11:53;;;;;;;0.50;0.50;;;19.70;53.00;;;;;;8361099;28;20036;-52
2023/11/26 13:15:58;;;;;;;0.57;0.50;;;19.70;53.00;;;;;;8361159;28;20037;-50
2023/11/26 13:19:59;;;;;;;0.40;0.40;;;19.80;53.10;;;;;;8361213;28;20029;-52
2023/11/26 13:24:00;;;;;;;0.40;0.40;;;19.70;53.00;;;;;;8360920;28;20048;-51
2023/11/26 13:28:04;;;;;;;0.60;0.60;;;19.70;53.10;;;;;;8360964;28;20037;-52
2023/11/26 13:32:06;;;;;;;0.50;0.40;;;19.70;53.20;;;;;;8360691;28;20395;-51
2023/11/26 13:36:07;;;;;;;0.50;0.50;;;19.70;53.20;;;;;;8360587;28;20029;-53
2023/11/26 13:40:09;;;;;;;0.40;0.40;;;19.70;53.20;;;;;;8360194;28;20078;-52
2023/11/26 13:44:10;;;;;;;0.75;0.75;;;19.70;53.20;;;;;;8360441;28;20043;-51
2023/11/26 13:48:11;;;;;;;0.52;0.52;;;19.70;53.20;;;;;;8359420;28;20474;-51
2023/11/26 13:52:12;;;;;;;0.82;0.50;;;19.70;53.20;;;;;;8359407;28;20044;-52
2023/11/26 13:56:12;;;;;;;1.05;0.60;;;19.70;53.20;;;;;;8360004;28;20055;-49
2023/11/26 14:00:14;;;;;;;0.50;0.50;;;19.70;53.20;;;;;;8359931;28;20100;-51
2023/11/26 14:04:14;;;;;;;0.65;0.50;;;19.70;53.20;;;;;;8359929;28;20063;-49
2023/11/26 14:08:15;;;;;;;0.60;0.52;;;19.70;53.10;;;;;;8359939;28;20029;-52
2023/11/26 14:12:16;;;;;;;0.60;0.60;;;19.70;53.10;;;;;;8358474;28;20035;-51
2023/11/26 14:16:17;;;;;;;0.50;0.50;;;19.70;53.30;;;;;;8359826;28;20475;-50
2023/11/26 14:20:18;;;;;;;;;;;19.70;53.10;;;;;;8360593;28;20029;-51
2023/11/26 14:24:19;;;;;;;1.67;0.60;;;19.70;53.10;;;;;;8359706;28;19919;-52
2023/11/26 14:28:19;;;;;;;0.68;0.60;;;19.70;53.10;;;;;;8359863;28;20029;-51
2023/11/26 14:32:20;;;;;;;0.60;0.60;;;19.70;53.10;;;;;;8359263;28;20063;-52
2023/11/26 14:36:21;;;;;;;0.50;0.50;;;19.80;53.20;;;;;;8359426;28;20363;-50
2023/11/26 14:40:23;;;;;;;0.50;0.50;;;19.70;53.10;;;;;;8359244;28;20486;-49
2023/11/26 14:44:24;;;;;;;0.55;0.55;;;19.70;53.10;;;;;;8359126;28;20116;-52
2023/11/26 14:48:24;;;;;;;0.60;0.60;;;19.70;53.10;;;;;;8359425;28;20036;-51
2023/11/26 14:52:25;;;;;;;0.55;0.50;;;19.70;53.10;;;;;;8359068;28;20033;-52
2023/11/26 14:56:26;;;;;;;0.47;0.47;;;19.70;53.10;;;;;;8359096;28;20041;-52
2023/11/26 15:00:26;;;;;;;0.40;0.40;;;19.70;53.10;;;;;;8358904;28;20083;-51
2023/11/26 15:04:28;;;;;;;0.70;0.63;;;19.70;53.10;;;;;;8365038;28;20049;-51
2023/11/26 15:08:29;;;;;;;0.57;0.55;;;19.70;53.10;;;;;;8365325;28;20155;-52
2023/11/26 15:12:30;;;;;;;0.60;0.60;;;19.80;53.10;;;;;;8363794;28;20037;-52
2023/11/26 15:16:30;;;;;;;0.60;0.60;;;19.70;53.00;;;;;;8365043;28;20040;-50
2023/11/26 15:20:31;;;;;;;0.70;0.63;;;19.70;53.00;;;;;;8364873;28;20025;-49
2023/11/26 15:24:36;;;;;;;0.40;0.40;;;19.80;53.10;;;;;;8365032;28;20040;-49
2023/11/26 15:28:37;;;;;;;0.40;0.40;;;19.70;53.00;;;;;;8364670;28;20468;-49
2023/11/26 15:32:39;;;;;;;1.02;0.60;;;19.70;53.10;;;;;;8364369;28;20486;-49
2023/11/26 15:36:41;;;;;;;0.60;0.60;;;19.70;53.00;;;;;;8364239;28;20029;-49
2023/11/26 15:40:42;;;;;;;1.38;0.50;;;19.80;53.10;;;;;;8365168;28;20028;-48
2023/11/26 15:44:42;;;;;;;0.93;0.50;;;19.80;53.10;;;;;;8364022;28;20478;-49
2023/11/26 15:48:43;;;;;;;0.40;0.40;;;19.70;53.10;;;;;;8364942;28;20060;-49
2023/11/26 15:52:44;;;;;;;1.40;0.95;;;19.70;53.00;;;;;;8363786;28;20033;-48
2023/11/26 15:56:44;;;;;;;0.50;0.50;;;19.70;53.00;;;;;;8363410;28;20033;-48
2023/11/26 16:00:45;;;;;;;0.43;0.43;;;19.80;53.00;;;;;;8363575;28;20487;-49
2023/11/26 16:04:46;;;;;;;0.40;0.40;;;19.70;53.00;;;;;;8364368;28;20037;-49
2023/11/26 16:08:47;;;;;;;0.75;0.60;;;19.70;53.00;;;;;;8363206;28;20050;-49
2023/11/26 16:12:48;;;;;;;1.55;0.65;;;19.70;53.00;;;;;;8363097;28;20497;-48
2023/11/26 16:16:48;;;;;;;0.50;0.50;;;19.80;53.00;;;;;;8363146;28;20390;-49
2023/11/26 16:20:49;;;;;;;0.68;0.45;;;19.70;53.00;;;;;;8362711;28;20466;-48
2023/11/26 16:24:50;;;;;;;0.73;0.70;;;19.80;53.00;;;;;;8362823;28;20029;-49
2023/11/26 16:28:51;;;;;;;0.50;0.50;;;19.70;53.40;;;;;;8362544;28;20056;-49
2023/11/26 16:32:52;;;;;;;0.70;0.50;;;19.80;53.00;;;;;;8362548;28;20112;-52
2023/11/26 16:36:53;;;;;;;0.80;0.60;;;19.70;53.00;;;;;;8362307;28;20036;-51
2023/11/26 16:40:53;;;;;;;0.70;0.70;;;19.70;53.00;;;;;;8360818;28;20037;-49
2023/11/26 16:44:54;;;;;;;2.00;0.77;;;19.80;53.00;;;;;;8362246;28;20488;-49
2023/11/26 16:48:55;;;;;;;0.60;0.60;;;19.70;53.00;;;;;;8362354;28;20033;-48
2023/11/26 16:52:55;;;;;;;0.88;0.77;;;19.70;53.00;;;;;;8361764;28;20475;-50
2023/11/26 16:56:56;;;;;;;0.55;0.55;;;19.70;53.00;;;;;;8361919;28;20276;-50
2023/11/26 17:00:58;;;;;;;0.60;0.60;;;19.70;53.00;;;;;;8361486;28;20032;-50
2023/11/26 17:04:58;;;;;;;0.55;0.55;;;19.80;53.00;;;;;;8361090;28;20033;-49
2023/11/26 17:08:59;;;;;;;0.55;0.50;;;19.70;53.00;;;;;;8361656;28;20044;-50
2023/11/26 17:13:00;;;;;;;0.57;0.57;;;19.80;53.00;;;;;;8361424;28;20107;-49
2023/11/26 17:17:00;;;;;;;1.48;0.80;;;19.80;52.90;;;;;;8360906;28;20033;-50
2023/11/26 17:21:01;;;;;;;0.77;0.70;;;19.70;52.90;;;;;;8361026;28;20032;-50
2023/11/26 17:25:02;;;;;;;1.17;0.77;;;19.70;52.90;;;;;;8359990;28;20037;-50
2023/11/26 17:29:03;;;;;;;0.70;0.70;;;19.80;52.90;;;;;;8360616;28;20079;-49
2023/11/26 17:33:05;;;;;;;1.17;0.50;;;19.80;52.90;;;;;;8360664;28;20397;-52
2023/11/26 17:37:06;;;;;;;0.85;0.70;;;19.70;52.90;;;;;;8360566;28;20394;-50
2023/11/26 17:41:07;;;;;;;1.38;0.68;;;19.70;52.90;;;;;;8360408;28;20086;-49
2023/11/26 17:45:08;;;;;;;0.63;0.40;;;19.70;52.90;;;;;;8360453;28;20021;-50
2023/11/26 17:49:09;;;;;;;0.75;0.60;;;19.80;52.90;;;;;;8360072;28;20052;-49
2023/11/26 17:53:09;;;;;;;0.82;0.77;;;19.70;52.90;;;;;;8359950;28;20025;-50
2023/11/26 17:57:12;;;;;;;0.75;0.70;;;19.70;52.90;;;;;;8358914;28;20044;-49
2023/11/26 18:01:13;;;;;;;0.77;0.70;;;19.70;52.90;;;;;;8359547;28;20036;-50
2023/11/26 18:05:14;;;;;;;1.05;0.80;;;19.70;53.00;;;;;;8360006;28;20043;-49
2023/11/26 18:09:14;;;;;;;0.57;0.57;;;19.70;52.90;;;;;;8359867;28;20045;-49
2023/11/26 18:13:15;;;;;;;0.73;0.68;;;19.70;53.00;;;;;;8359730;28;20069;-50
2023/11/26 18:17:16;;;;;;;0.70;0.70;;;19.60;53.00;;;;;;8359580;28;20596;-50
2023/11/26 18:21:17;;;;;;;0.93;0.63;;;19.60;53.00;;;;;;8359749;28;20477;-50
2023/11/26 18:25:17;;;;;;;0.73;0.60;;;19.60;53.10;;;;;;8359628;28;20090;-49
2023/11/26 18:29:18;;;;;;;0.80;0.77;;;19.60;53.10;;;;;;8359419;28;20375;-50
2023/11/26 18:33:19;;;;;;;0.90;0.80;;;19.60;53.10;;;;;;8359573;28;20052;-49
2023/11/26 18:37:21;;;;;;;0.70;0.70;;;19.60;53.10;;;;;;8363995;28;20148;-49
2023/11/26 18:41:22;;;;;;;0.70;0.70;;;19.60;53.10;;;;;;8366075;28;20490;-52
2023/11/26 18:45:23;;;;;;;0.63;0.63;;;19.70;53.00;;;;;;8365979;28;20735;-48
2023/11/26 18:49:24;;;;;;;0.90;0.80;;;19.70;52.90;;;;;;8365871;28;20242;-49
2023/11/26 18:53:25;;;;;;;1.27;0.88;;;19.70;52.90;;;;;;8366044;28;20073;-49
2023/11/26 18:57:26;;;;;;;0.93;0.60;;;19.70;52.80;;;;;;8365930;28;20029;-48
2023/11/26 19:01:27;;;;;;;0.77;0.70;;;19.80;52.80;;;;;;8364060;28;20106;-49
2023/11/26 19:05:28;;;;;;;0.57;0.57;;;19.70;52.80;;;;;;8365486;28;20112;-48
2023/11/26 19:09:37;;;;;;;0.80;0.68;;;19.80;52.80;;;;;;8365418;28;20045;-49
2023/11/26 19:13:39;;;;;;;1.23;1.00;;;19.70;52.80;;;;;;8365002;28;20040;-49
2023/11/26 19:17:40;;;;;;;0.82;0.70;;;19.70;52.80;;;;;;8365183;28;20033;-48
2023/11/26 19:21:41;;;;;;;0.95;0.80;;;19.80;52.90;;;;;;8365136;28;20058;-50
2023/11/26 19:25:42;;;;;;;1.17;0.77;;;19.80;52.80;;;;;;8364692;28;20037;-50
2023/11/26 19:29:45;;;;;;;0.75;0.73;;;19.80;52.80;;;;;;8364947;28;20040;-50
2023/11/26 19:33:50;;;;;;;1.20;0.82;;;19.70;52.80;;;;;;8364694;28;20467;-47
2023/11/26 19:37:54;;;;;;;0.75;0.63;;;19.80;52.80;;;;;;8363167;28;20461;-49
2023/11/26 19:41:57;;;;;;;0.95;0.63;;;19.70;52.70;;;;;;8364379;28;20029;-49
2023/11/26 19:45:59;;;;;;;0.82;0.75;;;19.80;52.80;;;;;;8363959;28;20083;-49
2023/11/26 19:50:00;;;;;;;0.98;0.80;;;19.70;52.70;;;;;;8363248;28;20108;-50
2023/11/26 19:54:01;;;;;;;0.75;0.70;;;19.80;52.80;;;;;;8363887;28;20059;-51
2023/11/26 19:58:02;;;;;;;0.88;0.80;;;19.80;52.80;;;;;;8363690;28;20422;-47
2023/11/26 20:02:03;;;;;;;1.00;0.70;;;19.70;52.70;;;;;;8363722;28;20661;-49
2023/11/26 20:06:04;;;;;;;1.27;0.88;;;19.70;52.70;;;;;;8363974;28;20372;-51
2023/11/26 20:10:08;;;;;;;0.90;0.90;;;19.70;52.70;;;;;;8363421;28;20040;-51
2023/11/26 20:14:09;;;;;;;1.27;0.90;;;19.80;52.80;;;;;;8363185;28;20041;-51
2023/11/26 20:18:12;;;;;;;0.73;0.70;;;19.70;52.80;;;;;;8363466;28;20058;-52
2023/11/26 20:22:13;;;;;;;1.45;0.65;;;19.70;52.80;;;;;;8363509;28;20033;-51
2023/11/26 20:26:21;;;;;;;1.10;1.00;;;19.70;52.80;;;;;;8362713;28;20059;-52
2023/11/26 20:30:21;;;;;;;1.17;0.85;;;19.70;52.70;;;;;;8362711;28;20025;-51
2023/11/26 20:34:25;;;;;;;0.57;0.57;;;19.70;52.70;;;;;;8362685;28;20033;-52
2023/11/26 20:38:26;;;;;;;1.58;1.05;;;19.80;52.70;;;;;;8362568;28;20045;-51
2023/11/26 20:42:27;;;;;;;0.70;0.70;;;19.70;52.70;;;;;;8362302;28;20033;-51
2023/11/26 20:46:27;;;;;;;2.13;0.70;;;19.70;52.60;;;;;;8362954;28;20367;-52
2023/11/26 20:50:28;;;;;;;1.55;0.80;;;19.80;52.70;;;;;;8362123;28;20688;-51
2023/11/26 20:54:29;;;;;;;1.02;0.80;;;19.70;52.70;;;;;;8361858;28;20044;-51
2023/11/26 20:58:36;;;;;;;1.48;1.00;;;19.80;52.60;;;;;;8362095;28;20033;-50
2023/11/26 21:02:37;;;;;;;1.48;0.98;;;19.70;52.60;;;;;;8361619;28;20419;-51